Missoula, MT

7:58 AM MDT on August 29, 2014 (GMT -0600)
Franklin to the Fort | Change Station
CLOSE
Current Station
Personal Weather Station
Location: Missoula, MT
Elevation: 3200 ft
Nearby Weather Stations

Elev 3200 ft 46.86 °N, 114.02 °W | Updated 3 seconds ago

Clear
Clear
53.0 °F
Feels Like 53.0 °F
N
0.0
Wind Variable Wind from ESE
Gusts 0.0 mph

Today
High -- | Low -- °F
--% Chance of Precip.
Yesterday
High -- | Low -- °F
Precip. -- in
6:51 AM 8:21 PM
Waxing Crescent, 14% visible
Pressure 30.02 in
Visibility 10.0 miles
Clouds Clear
Dew Point 46 °F
Humidity 77%
Rainfall 0.00 in
Snow Depth 0 in
UV 0 out of 12
Pollen 7.80 out of 12
Air Quality Not available.
Flu Activity Not available.
METAR KMSO 291353Z 00000KT 10SM CLR 12/07 A3006 RMK AO2 SLP165 T01170072

More Conditions Fewer Conditions

Pressure 30.02 in
Visibility 10.0 miles
Clouds Clear
Dew Point 46 °F
Humidity 77%
Rainfall 0.00 in
Snow Depth 0 in
UV 0 out of 12
Pollen 7.80 out of 12
Air Quality Not available.
Flu Activity Not available.
METAR KMSO 291353Z 00000KT 10SM CLR 12/07 A3006 RMK AO2 SLP165 T01170072

More Conditions Fewer Conditions

10-Day Weather Forecast

Almanac

Astronomy

Aug. 29, 2014 Rise Set
Actual Time 6:51 AM MDT 8:21 PM MDT
Civil Twilight 6:20 AM MDT 8:52 PM MDT
Nautical Twilight 5:41 AM MDT 9:31 PM MDT
Astronomical Twilight 5:00 AM MDT 10:12 PM MDT
Moon 11:02 AM MDT 10:02 PM MDT
Length of Visible Light 14h 32m
Length of Day
13h 29m
Tomorrow will be 3m 11s shorter.
Waxing Crescent, 14% of the Moon is Illuminated
Today
Waxing Crescent
Sep 2
First Quarter
Sep 8
Full
Sep 15
Last Quarter
Sep 24
New

Today's Extremes

State Highs State Lows

Community

WunderPhotos

Upload Photos

1,748,235 photos uploaded!

Nearby

Snow Depth

Station Depth Elevation
Stuart Mountain 0 in 7400 ft
North Fork Jocko 0 in 6330 ft
Lubrecht Flume 0 in 4680 ft
Combination 0 in 5600 ft
Kraft Creek 0 in 4750 ft

Earthquake Activity

City Distance Mag. Time & Date
No recent earthquake activity has been reported nearby.
Minimum magnitude displayed is 2.5.

Coastal Water Temperatures

Place Temperature
No Stations Reporting

Nearby Weather Stations